Latest Weather Observations for Narrandera Airport

IDN60801

Issued at 6:35 am EDT Tuesday 25 November 2014 (issued every 30 minutes, with the page automatically refreshed every 10 minutes)

About weather observations | Map of weather stations | Latest weather observations for NSW | Other Formats
Station Details ID: 074148 Name: NARRANDERA AIRPORT AWS Lat: -34.70 Lon: 146.51 Height: 145.0 m
Data from the previous 72 hours. | See also: Recent months for locations in New South Wales
Date/Time
EDT
Temp
°C
App
Temp
°C
Dew
Point
Rel
Hum
%
Delta-T
°C
Wind Press
QNH
hPa
Press
MSL
hPa
Rain
since 9 am
mm
Dir
 
Spd
km/h
Gust
km/h
Spd
kts
Gust
kts
25/06:30am 11.4 8.4 7.9 79 1.7 SSW 13 15 7 8 1017.9 1017.4 5.4
25/06:00am 11.2 8.2 7.7 79 1.7 SW 13 19 7 10 1017.6 1017.1 5.4
25/05:30am 11.7 8.3 7.6 76 2.0 SW 15 20 8 11 1016.8 1016.3 5.4
25/05:00am 12.3 8.9 7.6 73 2.3 SSW 15 19 8 10 1016.3 1015.8 5.4
25/04:30am 12.9 9.1 7.4 69 2.7 SSW 17 22 9 12 1015.9 1015.4 5.4
25/04:00am 13.2 9.1 7.9 70 2.6 SSW 19 26 10 14 1015.5 1015.0 5.4
25/03:30am 13.9 8.9 7.9 67 3.0 SSW 24 33 13 18 1015.1 1014.6 5.4
25/03:00am 14.4 8.8 8.6 68 2.9 SSW 28 41 15 22 1014.8 1014.3 5.4
25/02:30am 15.4 11.2 11.0 75 2.4 SW 24 37 13 20 1014.3 1013.8 5.4
25/02:00am 16.2 12.9 12.7 80 1.9 SW 22 32 12 17 1014.2 1013.7 5.4
25/01:30am 16.6 13.0 13.1 80 2.0 SW 24 39 13 21 1014.2 1013.7 5.4
25/01:00am 17.7 13.5 13.6 77 2.3 SW 28 39 15 21 1013.9 1013.3 5.4
25/12:30am 18.9 14.7 13.5 71 3.1 SW 28 44 15 24 1013.6 1013.0 5.4
25/12:00am 20.3 18.1 14.9 71 3.2 WSW 20 32 11 17 1013.0 1012.4 5.4
 
Date/Time
EDT
Temp
°C
App
Temp
°C
Dew
Point
Rel
Hum
%
Delta-T
°C
Wind Press
QNH
hPa
Press
MSL
hPa
Rain
since 9 am
mm
Dir
 
Spd
km/h
Gust
km/h
Spd
kts
Gust
kts
24/11:30pm 20.5 20.2 16.5 78 2.4 WSW 13 26 7 14 1012.4 1011.8 5.4
24/11:00pm 20.2 20.6 17.2 83 1.8 WSW 11 17 6 9 1011.7 1011.2 5.4
24/10:30pm 20.2 20.6 17.2 83 1.8 W 11 17 6 9 1011.5 1011.0 5.4
24/10:00pm 20.4 19.7 16.4 78 2.4 W 15 20 8 11 1011.1 1010.6 5.4
24/09:30pm 20.7 19.5 16.1 75 2.8 W 17 28 9 15 1010.7 1010.2 5.4
24/09:07pm 20.2 18.0 16.8 81 2.1 W 24 35 13 19 1010.8 1010.3 5.4
24/09:00pm 20.2 19.0 17.0 82 2.0 N 19 24 10 13 1008.7 1008.2 5.4
24/08:30pm 20.4 18.2 16.8 80 2.2 WNW 24 32 13 17 1010.1 1009.6 5.2
24/08:00pm 20.2 16.4 17.2 83 1.8 WSW 33 48 18 26 1010.0 1009.5 5.2
24/07:30pm 24.3 19.7 16.0 60 5.1 W 35 65 19 35 1009.8 1009.3 1.8
24/07:29pm 26.0 22.3 16.0 54 6.2 W 30 50 16 27 1009.6 1009.1 1.8
24/07:00pm 27.3 26.0 17.2 54 6.4 N 20 26 11 14 1007.5 1006.9 1.8
24/06:30pm 28.2 26.0 16.8 50 7.2 N 24 30 13 16 1006.8 1006.2 1.8
24/06:00pm 28.4 26.1 16.7 49 7.4 N 24 33 13 18 1006.7 1006.1 1.8
24/05:30pm 27.3 26.0 17.2 54 6.4 N 20 24 11 13 1006.7 1006.1 1.8
24/05:00pm 26.6 25.3 18.2 60 5.4 NNE 22 30 12 16 1006.9 1006.3 1.8
24/04:30pm 25.8 24.1 18.0 62 4.9 NE 24 32 13 17 1007.0 1006.4 1.8
24/04:00pm 26.1 25.2 19.0 65 4.6 NE 22 30 12 16 1008.1 1007.6 1.8
24/03:30pm 24.8 22.7 18.0 66 4.3 NE 26 33 14 18 1008.9 1008.4 1.8
24/03:00pm 24.5 22.4 18.0 67 4.1 NNE 26 33 14 18 1009.9 1009.4 1.8
24/02:30pm 23.1 22.4 18.6 76 2.9 NE 20 26 11 14 1009.9 1009.4 1.8
24/02:00pm 22.6 22.1 19.2 81 2.2 ENE 20 26 11 14 1009.5 1009.0 1.8
24/01:30pm 22.4 22.1 19.6 84 1.8 E 20 24 11 13 1010.0 1009.5 1.8
24/01:28pm 22.3 21.9 19.3 83 1.9 E 20 24 11 13 1010.1 1009.6 1.8
24/01:00pm 21.9 24.4 19.1 84 1.8 SE 4 9 2 5 1012.1 1011.6 1.8
24/12:30pm 21.6 22.8 19.0 85 1.7 SSW 11 15 6 8 1012.9 1012.3 1.6
24/12:00pm 21.8 23.1 19.2 85 1.7 SW 11 17 6 9 1013.2 1012.6 1.4
24/11:30am 22.2 23.7 18.8 81 2.2 SW 9 15 5 8 1013.6 1013.0 1.2
24/11:00am 22.5 22.8 17.8 75 2.9 WSW 13 24 7 13 1014.1 1013.6 1.0
24/10:30am 23.3 24.7 18.6 75 3.0 SW 9 17 5 9 1012.9 1012.3 0.4
24/10:00am 23.5 24.8 18.4 73 3.2 SSW 9 13 5 7 1012.7 1012.1 0.4
24/09:30am 22.2 22.5 18.8 81 2.2 NNE 15 19 8 10 1012.8 1012.2 0.4
24/09:00am 22.6 24.9 19.4 82 2.1 N 6 11 3 6 1012.8 1012.2 4.4
24/08:30am 22.1 23.9 18.3 79 2.4 N 6 9 3 5 1012.9 1012.3 4.2
24/08:00am 21.4 23.1 17.2 77 2.6 ESE 4 9 2 5 1013.2 1012.6 4.2
24/07:30am 20.9 20.2 17.3 80 2.2 N 17 20 9 11 1013.9 1013.3 3.6
24/07:00am 20.3 18.2 17.1 82 2.0 NNE 24 30 13 16 1013.9 1013.3 3.2
24/06:30am 19.9 18.4 16.3 80 2.2 NNE 19 24 10 13 1014.0 1013.5 2.8
24/06:00am 19.9 19.1 16.2 79 2.2 NE 15 22 8 12 1014.3 1013.8 2.4
24/05:30am 20.4 19.8 14.7 70 3.4 NE 11 17 6 9 1014.1 1013.6 1.0
24/05:00am 20.5 19.4 14.4 68 3.6 NE 13 19 7 10 1013.4 1012.8 0.6
24/04:30am 21.4 18.9 14.1 63 4.3 NE 20 20 11 11 1012.6 1012.0 0.0
24/04:00am 23.3 21.4 11.7 48 6.6 SE 13 20 7 11 1011.8 1011.3 0.0
24/03:30am 23.9 21.7 10.9 44 7.3 ESE 13 17 7 9 1011.9 1011.4 0.0
24/03:00am 26.1 23.2 8.1 32 9.7 S 13 19 7 10 1012.4 1011.8 0.0
24/02:30am 26.4 23.2 8.4 32 9.8 S 15 22 8 12 1012.7 1012.1 0.0
24/02:00am 26.3 22.2 8.8 33 9.6 SSW 20 28 11 15 1013.4 1012.8 0.0
24/01:30am 27.1 25.0 9.9 34 9.6 WSW 11 15 6 8 1013.9 1013.3 0.0
24/01:00am 26.9 25.5 9.7 34 9.6 W 7 11 4 6 1013.5 1012.9 0.0
24/12:30am 27.6 26.2 9.4 32 10.1 W 7 11 4 6 1013.1 1012.5 0.0
24/12:00am 27.8 26.6 9.6 32 10.2 NE 6 9 3 5 1012.7 1012.1 0.0
 
Date/Time
EDT
Temp
°C
App
Temp
°C
Dew
Point
Rel
Hum
%
Delta-T
°C
Wind Press
QNH
hPa
Press
MSL
hPa
Rain
since 9 am
mm
Dir
 
Spd
km/h
Gust
km/h
Spd
kts
Gust
kts
23/11:30pm 27.6 25.8 9.4 32 10.1 NE 9 13 5 7 1012.6 1012.0 0.0
23/11:00pm 27.9 26.0 9.2 31 10.4 SSW 9 13 5 7 1012.2 1011.7 0.0
23/10:30pm 28.0 26.2 9.3 31 10.4 E 9 11 5 6 1012.6 1012.0 0.0
23/10:00pm 29.1 27.2 7.6 26 11.7 S 7 9 4 5 1012.5 1011.9 0.0
23/09:30pm 30.7 28.1 7.8 24 12.6 SW 11 17 6 9 1012.8 1012.2 0.0
23/09:00pm 31.4 27.7 7.8 23 13.0 SW 17 28 9 15 1012.7 1012.1 0.0
23/08:30pm 32.3 28.2 7.9 22 13.6 WSW 19 28 10 15 1012.1 1011.6 0.0
23/08:00pm 33.1 29.2 8.5 22 13.9 WSW 19 33 10 18 1011.4 1010.9 0.0
23/07:30pm 33.7 28.9 9.0 22 14.1 SW 24 33 13 18 1010.6 1010.1 0.0
23/07:00pm 34.1 30.2 10.7 24 13.7 SW 22 33 12 18 1009.9 1009.4 0.0
23/06:30pm 35.0 30.5 10.1 22 14.5 SW 24 37 13 20 1009.4 1008.9 0.0
23/06:00pm 35.8 31.3 10.1 21 15.0 SW 24 33 13 18 1009.1 1008.6 0.0
23/05:30pm 37.5 32.0 9.2 18 16.4 W 28 39 15 21 1009.1 1008.6 0.0
23/05:00pm 38.6 34.0 8.3 16 17.5 WSW 22 39 12 21 1008.8 1008.3 0.0
23/04:30pm 38.7 33.4 8.4 16 17.5 W 26 37 14 20 1008.7 1008.2 0.0
23/04:00pm 39.7 35.1 8.2 15 18.2 W 22 33 12 18 1008.6 1008.1 0.0
23/03:30pm 40.1 37.3 8.5 15 18.4 W 13 20 7 11 1008.7 1008.2 0.0
23/03:00pm 38.6 33.7 8.3 16 17.5 NW 24 33 13 18 1008.9 1008.4 0.0
23/02:30pm 38.7 35.1 8.4 16 17.5 W 17 35 9 19 1009.0 1008.5 0.0
23/02:00pm 38.6 34.4 8.3 16 17.5 W 20 30 11 16 1009.1 1008.6 0.0
23/01:30pm 38.9 35.0 8.5 16 17.6 W 19 32 10 17 1009.3 1008.8 0.0
23/01:00pm 38.0 34.1 8.7 17 17.0 W 19 30 10 16 1009.4 1008.9 0.0
23/12:30pm 37.5 32.9 8.3 17 16.7 W 22 32 12 17 1009.5 1009.0 0.0
23/12:00pm 37.4 32.8 8.2 17 16.7 W 22 33 12 18 1009.6 1009.1 0.0
23/11:30am 36.0 31.7 8.0 18 15.9 WNW 20 32 11 17 1009.8 1009.3 0.0
23/11:00am 35.0 32.8 7.9 19 15.3 WNW 9 20 5 11 1009.9 1009.4 0.0
23/10:30am 33.9 32.2 8.5 21 14.4 ENE 7 17 4 9 1009.9 1009.4 0.0
23/10:00am 31.8 30.2 8.1 23 13.2 S 6 15 3 8 1010.1 1009.6 0.0
23/09:30am 30.4 28.9 9.3 27 11.9 SSE 7 13 4 7 1010.1 1009.6 0.0
23/09:00am 29.7 28.2 9.3 28 11.5 S 7 13 4 7 1010.1 1009.6 0.0
23/08:30am 28.8 26.4 8.5 28 11.2 SE 11 15 6 8 1009.8 1009.3 0.0
23/08:00am 27.4 24.5 8.3 30 10.4 ESE 13 17 7 9 1009.4 1008.9 0.0
23/07:30am 25.9 22.5 9.3 35 9.1 ESE 17 20 9 11 1009.2 1008.7 0.0
23/07:00am 23.3 21.3 10.0 43 7.3 ESE 11 15 6 8 1009.0 1008.5 0.0
23/06:30am 20.6 19.0 10.1 51 5.7 ESE 9 13 5 7 1009.0 1008.5 0.0
23/06:00am 19.6 18.8 9.8 53 5.3 NE 4 9 2 5 1008.8 1008.3 0.0
23/05:30am 20.5 18.5 10.0 51 5.7 SE 11 15 6 8 1008.9 1008.4 0.0
23/05:00am 20.9 18.6 10.4 51 5.8 SSE 13 17 7 9 1009.1 1008.6 0.0
23/04:30am 19.1 18.2 11.2 60 4.3 S 7 9 4 5 1009.2 1008.7 0.0
23/04:00am 20.9 19.1 10.7 52 5.6 SE 11 13 6 7 1009.2 1008.7 0.0
23/03:30am 20.9 19.5 11.0 53 5.5 ESE 9 13 5 7 1009.1 1008.6 0.0
23/03:00am 21.8 20.1 11.2 51 5.9 ESE 11 19 6 10 1009.0 1008.5 0.0
23/02:30am 20.9 18.4 13.4 62 4.3 NE 19 19 10 10 1010.1 1009.6 0.0
23/02:00am 23.3 23.1 11.7 48 6.6 SSW 4 7 2 4 1011.5 1011.0 0.0
23/01:30am 23.2 22.2 10.9 46 6.9 ESE 7 13 4 7 1010.9 1010.4 0.0
23/01:00am 23.8 22.2 10.1 42 7.6 W 9 11 5 6 1011.3 1010.8 0.0
23/12:30am 24.9 24.4 9.2 37 8.6 SW 2 7 1 4 1012.0 1011.5 0.0
23/12:00am 24.6 23.6 9.0 37 8.5 SSE 4 9 2 5 1011.3 1010.8 0.0
 
Date/Time
EDT
Temp
°C
App
Temp
°C
Dew
Point
Rel
Hum
%
Delta-T
°C
Wind Press
QNH
hPa
Press
MSL
hPa
Rain
since 9 am
mm
Dir
 
Spd
km/h
Gust
km/h
Spd
kts
Gust
kts
22/11:30pm 24.4 23.1 9.2 38 8.3 ESE 6 9 3 5 1010.8 1010.3 0.0
22/11:00pm 24.3 22.2 8.3 36 8.6 SE 9 11 5 6 1011.1 1010.6 0.0
22/10:30pm 26.0 24.2 8.0 32 9.7 S 7 9 4 5 1011.6 1011.1 0.0
22/10:00pm 27.9 25.0 8.2 29 10.8 S 13 17 7 9 1011.7 1011.2 0.0
22/09:30pm 28.8 25.0 7.4 26 11.6 S 17 28 9 15 1011.3 1010.8 0.0
22/09:00pm 29.6 25.4 5.6 22 12.7 S 17 22 9 12 1010.7 1010.2 0.0
22/08:30pm 29.1 26.4 3.9 20 12.9 S 7 11 4 6 1010.7 1010.2 0.0
22/08:00pm 30.7 27.6 3.7 18 13.9 S 9 15 5 8 1010.2 1009.7 0.0
22/07:30pm 32.0 27.7 3.1 16 14.8 S 15 20 8 11 1010.1 1009.6 0.0
22/07:00pm 32.7 28.5 3.6 16 15.1 SSW 15 20 8 11 1010.3 1009.8 0.0
22/06:30pm 34.6 31.8 3.2 14 16.4 SSW 7 19 4 10 1009.4 1008.9 0.0
22/06:00pm 35.2 32.7 3.7 14 16.7 SW 6 15 3 8 1009.1 1008.6 0.0
22/05:30pm 34.8 29.8 3.4 14 16.5 SSW 19 26 10 14 1009.2 1008.7 0.0
22/05:00pm 35.3 32.0 4.8 15 16.4 W 11 20 6 11 1009.1 1008.6 0.0
22/04:30pm 34.9 30.4 2.4 13 16.8 WSW 15 24 8 13 1009.5 1009.0 0.0
22/04:00pm 34.3 31.4 4.9 16 15.8 WSW 9 17 5 9 1010.3 1009.8 0.0
22/03:30pm 33.6 29.9 4.3 16 15.5 WNW 13 20 7 11 1010.6 1010.1 0.0
22/03:00pm 33.8 29.0 4.5 16 15.6 W 19 32 10 17 1010.8 1010.3 0.0
22/02:30pm 33.8 29.0 4.5 16 15.5 W 19 24 10 13 1011.1 1010.6 0.0
22/02:00pm 34.1 29.3 4.7 16 15.7 W 19 33 10 18 1011.5 1011.0 0.0
22/01:30pm 34.1 31.4 5.6 17 15.4 W 9 20 5 11 1011.5 1011.0 0.0
22/01:00pm 33.4 29.0 5.0 17 15.2 W 17 20 9 11 1011.8 1011.3 0.0
22/12:30pm 33.1 28.3 5.6 18 14.8 NW 20 26 11 14 1011.5 1011.0 0.0
22/12:00pm 33.0 29.5 5.5 18 14.8 N 13 28 7 15 1011.4 1010.9 0.0
22/11:30am 32.4 28.8 6.6 20 14.1 NW 15 26 8 14 1011.6 1011.1 0.0
22/11:00am 31.2 27.3 7.0 22 13.2 N 17 22 9 12 1011.8 1011.3 0.0
22/10:30am 29.7 26.3 5.7 22 12.7 N 13 20 7 11 1012.2 1011.7 0.0
22/10:00am 29.0 26.6 5.1 22 12.5 NE 7 15 4 8 1012.7 1012.1 0.0
22/09:30am 27.9 25.6 4.9 23 11.9 NE 6 13 3 7 1012.9 1012.3 0.0
22/09:00am 27.8 24.7 5.4 24 11.7 ENE 11 17 6 9 1012.7 1012.1 0.0
22/08:30am 26.4 23.0 5.9 27 10.7 E 13 17 7 9 1012.6 1012.0 0.0
22/08:00am 24.0 22.0 7.2 34 8.8 E 7 9 4 5 1012.6 1012.0 0.0
22/07:30am 20.8 20.4 8.4 45 6.5 CALM 0 7 0 4 1012.4 1011.8 0.0
22/07:00am 17.0 16.8 8.9 59 4.2 CALM 0 0 0 0 1012.4 1011.8 0.0

Other Formats:

Comma delimited format used in spreadsheet applications
http://www.bom.gov.au/fwo/IDN60801/IDN60801.95706.axf

JavaScript Object Notation format (JSON) in row-major order
http://www.bom.gov.au/fwo/IDN60801/IDN60801.95706.json